Terminal Aerodrome Forecast
Issued by NWS Charleston, WV

Current Version | Previous Version | Graphics & Text | Print | Product List | Glossary On
Versions: 1 2 3 4 5 6 7 8 9 10 11 12 13 14 15 16 17 18 19 20 21 22
000
FTUS41 KRLX 032118 AAA
TAFPKB
TAF AMD
KPKB 032118Z 0321/0418 24010KT P6SM BKN050
     FM032200 23008KT 5SM SHRA BKN040 BKN100
      TEMPO 0323/0402 3SM TSRA BR BKN030CB
     FM040200 22006KT P6SM VCTS BKN030CB BKN080
     FM040600 25004KT 5SM BR BKN020
     FM041200 31003KT P6SM SCT035=

USA.gov is the U.S. government's official web portal to all federal, state and local government web resources and services.